Time,TemperatureF,DewpointF,PressureIn,WindDirection,WindDirectionDegrees,WindSpeedMPH,WindSpeedGustMPH,Humidity,HourlyPrecipIn,Conditions,Clouds,dailyrainin,SoftwareType,DateUTC
2013-01-24 00:03:00,39.3,29.3,30.27,NNW,340,1.0,3.0,67,0.00,,,0.00,Wunderground v.1.15,2013-01-24 05:03:00,
2013-01-24 00:05:00,39.4,29.3,30.27,NW,321,1.0,3.0,67,0.00,,,0.00,Wunderground v.1.15,2013-01-24 05:05:00,
2013-01-24 00:06:00,39.5,29.4,30.26,NNW,341,1.0,3.0,67,0.00,,,0.00,Wunderground v.1.15,2013-01-24 05:06:00,
2013-01-24 00:09:00,39.5,29.8,30.26,SSW,206,1.0,3.0,68,0.00,,,0.00,Wunderground v.1.15,2013-01-24 05:09:00,
2013-01-24 00:15:00,39.9,30.2,30.26,WNW,300,1.0,4.0,68,0.00,,,0.00,Wunderground v.1.15,2013-01-24 05:15:00,
2013-01-24 00:20:00,40.4,30.3,30.26,SSE,158,2.0,2.0,67,0.00,,,0.00,Wunderground v.1.15,2013-01-24 05:20:00,
2013-01-24 00:26:00,40.3,30.6,30.25,South,173,1.0,2.0,68,0.00,,,0.00,Wunderground v.1.15,2013-01-24 05:26:00,
2013-01-24 00:32:00,40.6,30.9,30.25,SSW,201,2.0,5.0,68,0.00,,,0.00,Wunderground v.1.15,2013-01-24 05:32:00,
2013-01-24 00:37:00,40.7,31.0,30.26,NW,318,1.0,5.0,68,0.00,,,0.00,Wunderground v.1.15,2013-01-24 05:37:00,
2013-01-24 00:43:00,40.9,31.1,30.26,ENE,71,1.0,4.0,68,0.00,,,0.00,Wunderground v.1.15,2013-01-24 05:43:00,
2013-01-24 00:51:00,41.0,31.6,30.25,SE,138,1.0,1.0,69,0.00,,,0.00,Wunderground v.1.15,2013-01-24 05:51:00,
2013-01-24 00:56:00,41.3,32.2,30.25,SE,140,1.0,3.0,70,0.00,,,0.00,Wunderground v.1.15,2013-01-24 05:56:00,
2013-01-24 01:01:00,41.6,32.5,30.24,NNW,335,1.0,3.0,70,0.00,,,0.00,Wunderground v.1.15,2013-01-24 06:01:00,
2013-01-24 01:06:00,41.7,32.6,30.24,South,188,1.0,3.0,70,0.00,,,0.00,Wunderground v.1.15,2013-01-24 06:06:00,
2013-01-24 01:12:00,41.8,32.7,30.24,SSW,205,2.0,2.0,70,0.00,,,0.00,Wunderground v.1.15,2013-01-24 06:12:00,
2013-01-24 01:18:00,42.4,33.3,30.24,NNE,16,3.0,7.0,70,0.00,,,0.00,Wunderground v.1.15,2013-01-24 06:18:00,
2013-01-24 01:24:00,42.8,33.3,30.22,SE,142,3.0,6.0,69,0.00,,,0.00,Wunderground v.1.15,2013-01-24 06:24:00,
2013-01-24 01:30:00,43.1,33.6,30.22,NE,52,3.0,3.0,69,0.00,,,0.00,Wunderground v.1.15,2013-01-24 06:30:00,
2013-01-24 01:36:00,43.3,33.8,30.21,NNW,332,3.0,6.0,69,0.00,,,0.00,Wunderground v.1.15,2013-01-24 06:36:00,
2013-01-24 01:41:00,43.3,33.8,30.21,ESE,111,2.0,3.0,69,0.00,,,0.00,Wunderground v.1.15,2013-01-24 06:41:00,
2013-01-24 01:50:00,43.4,33.9,30.20,SE,146,3.0,3.0,69,0.00,,,0.00,Wunderground v.1.15,2013-01-24 06:50:00,
2013-01-24 01:56:00,43.4,33.9,30.20,South,177,2.0,5.0,69,0.00,,,0.00,Wunderground v.1.15,2013-01-24 06:56:00,
2013-01-24 02:02:00,43.5,34.0,30.19,NE,51,4.0,5.0,69,0.00,,,0.00,Wunderground v.1.15,2013-01-24 07:02:00,
2013-01-24 02:08:00,43.5,34.0,30.20,SSW,202,4.0,6.0,69,0.00,,,0.00,Wunderground v.1.15,2013-01-24 07:08:00,
2013-01-24 02:14:00,43.5,34.0,30.19,North,360,3.0,6.0,69,0.00,,,0.00,Wunderground v.1.15,2013-01-24 07:14:00,
2013-01-24 02:19:00,43.4,33.9,30.19,SSE,154,4.0,6.0,69,0.00,,,0.00,Wunderground v.1.15,2013-01-24 07:19:00,
2013-01-24 02:25:00,43.3,33.4,30.18,WNW,284,3.0,6.0,68,0.00,,,0.00,Wunderground v.1.15,2013-01-24 07:25:00,
2013-01-24 02:30:00,43.3,33.4,30.18,ESE,122,3.0,3.0,68,0.00,,,0.00,Wunderground v.1.15,2013-01-24 07:30:00,
2013-01-24 02:36:00,43.3,33.4,30.19,WNW,300,4.0,11.0,68,0.00,,,0.00,Wunderground v.1.15,2013-01-24 07:36:00,
2013-01-24 02:42:00,43.3,33.4,30.19,SW,225,4.0,4.0,68,0.00,,,0.00,Wunderground v.1.15,2013-01-24 07:42:00,
2013-01-24 02:51:00,43.2,33.3,30.19,East,81,3.0,3.0,68,0.00,,,0.00,Wunderground v.1.15,2013-01-24 07:51:00,
2013-01-24 02:56:00,43.1,33.3,30.18,WSW,248,3.0,6.0,68,0.00,,,0.00,Wunderground v.1.15,2013-01-24 07:56:00,
2013-01-24 03:02:00,43.3,33.1,30.18,ESE,120,3.0,5.0,67,0.00,,,0.00,Wunderground v.1.15,2013-01-24 08:02:00,
2013-01-24 03:07:00,43.3,33.1,30.17,WNW,290,3.0,6.0,67,0.00,,,0.00,Wunderground v.1.15,2013-01-24 08:07:00,
2013-01-24 03:13:00,43.3,33.1,30.17,North,355,4.0,4.0,67,0.00,,,0.00,Wunderground v.1.15,2013-01-24 08:13:00,
2013-01-24 03:19:00,43.2,33.0,30.16,West,281,5.0,12.0,67,0.00,,,0.00,Wunderground v.1.15,2013-01-24 08:19:00,
2013-01-24 03:24:00,43.0,32.8,30.17,NE,40,4.0,8.0,67,0.00,,,0.00,Wunderground v.1.15,2013-01-24 08:24:00,
2013-01-24 03:30:00,43.1,32.9,30.16,SE,143,4.0,4.0,67,0.00,,,0.00,Wunderground v.1.15,2013-01-24 08:30:00,
2013-01-24 03:36:00,43.0,32.8,30.16,WNW,288,3.0,4.0,67,0.00,,,0.00,Wunderground v.1.15,2013-01-24 08:36:00,
2013-01-24 03:41:00,42.9,32.7,30.16,SSW,199,2.0,8.0,67,0.00,,,0.00,Wunderground v.1.15,2013-01-24 08:41:00,
2013-01-24 03:50:00,43.1,32.5,30.15,West,265,6.0,6.0,66,0.00,,,0.00,Wunderground v.1.15,2013-01-24 08:50:00,
2013-01-24 03:56:00,43.1,32.9,30.15,North,9,5.0,13.0,67,0.00,,,0.00,Wunderground v.1.15,2013-01-24 08:56:00,
2013-01-24 04:01:00,43.0,32.8,30.14,SW,219,4.0,5.0,67,0.00,,,0.00,Wunderground v.1.15,2013-01-24 09:01:00,
2013-01-24 04:07:00,42.9,32.7,30.14,South,179,3.0,5.0,67,0.00,,,0.00,Wunderground v.1.15,2013-01-24 09:07:00,
2013-01-24 04:13:00,42.7,32.5,30.14,South,183,3.0,8.0,67,0.00,,,0.00,Wunderground v.1.15,2013-01-24 09:13:00,
2013-01-24 04:18:00,42.6,32.8,30.14,SW,225,3.0,9.0,68,0.00,,,0.00,Wunderground v.1.15,2013-01-24 09:18:00,
2013-01-24 04:24:00,42.5,32.7,30.13,SE,135,3.0,8.0,68,0.00,,,0.00,Wunderground v.1.15,2013-01-24 09:24:00,
2013-01-24 04:30:00,42.5,32.3,30.14,ESE,105,4.0,5.0,67,0.00,,,0.00,Wunderground v.1.15,2013-01-24 09:30:00,
2013-01-24 04:36:00,42.4,32.6,30.13,South,182,3.0,7.0,68,0.00,,,0.00,Wunderground v.1.15,2013-01-24 09:36:00,
2013-01-24 04:41:00,42.5,32.7,30.13,NW,314,2.0,4.0,68,0.00,,,0.00,Wunderground v.1.15,2013-01-24 09:41:00,
2013-01-24 04:51:00,42.4,32.2,30.13,SW,232,4.0,5.0,67,0.00,,,0.00,Wunderground v.1.15,2013-01-24 09:51:00,
2013-01-24 04:56:00,42.5,32.3,30.13,SSE,163,4.0,14.0,67,0.00,,,0.00,Wunderground v.1.15,2013-01-24 09:56:00,
2013-01-24 05:02:00,42.5,31.9,30.12,East,85,3.0,4.0,66,0.00,,,0.00,Wunderground v.1.15,2013-01-24 10:02:00,
2013-01-24 05:07:00,42.4,32.2,30.13,North,9,3.0,4.0,67,0.00,,,0.00,Wunderground v.1.15,2013-01-24 10:07:00,
2013-01-24 05:12:00,42.1,31.9,30.13,NW,319,2.0,3.0,67,0.00,,,0.00,Wunderground v.1.15,2013-01-24 10:12:00,
2013-01-24 05:17:00,42.1,31.9,30.13,SSE,157,2.0,3.0,67,0.00,,,0.00,Wunderground v.1.15,2013-01-24 10:17:00,
2013-01-24 05:22:00,42.1,31.6,30.13,SE,132,2.0,2.0,66,0.00,,,0.00,Wunderground v.1.15,2013-01-24 10:22:00,
2013-01-24 05:27:00,42.1,31.6,30.12,East,92,3.0,7.0,66,0.00,,,0.00,Wunderground v.1.15,2013-01-24 10:27:00,
2013-01-24 05:32:00,42.1,31.6,30.13,SE,131,3.0,3.0,66,0.00,,,0.00,Wunderground v.1.15,2013-01-24 10:32:00,
2013-01-24 05:37:00,42.0,31.5,30.13,North,11,3.0,7.0,66,0.00,,,0.00,Wunderground v.1.15,2013-01-24 10:37:00,
2013-01-24 05:42:00,42.0,31.1,30.13,East,98,3.0,6.0,65,0.00,,,0.00,Wunderground v.1.15,2013-01-24 10:42:00,
2013-01-24 05:50:00,42.0,30.7,30.13,NNW,338,2.0,3.0,64,0.00,,,0.00,Wunderground v.1.15,2013-01-24 10:50:00,
2013-01-24 05:56:00,42.0,30.7,30.13,SSE,155,2.0,14.0,64,0.00,,,0.00,Wunderground v.1.15,2013-01-24 10:56:00,
2013-01-24 06:01:00,41.9,30.2,30.14,SSE,168,2.0,2.0,63,0.00,,,0.00,Wunderground v.1.15,2013-01-24 11:01:00,
2013-01-24 06:07:00,42.0,29.9,30.14,SW,234,3.0,7.0,62,0.00,,,0.00,Wunderground v.1.15,2013-01-24 11:07:00,
2013-01-24 06:12:00,42.0,29.9,30.14,NW,320,3.0,3.0,62,0.00,,,0.00,Wunderground v.1.15,2013-01-24 11:12:00,
2013-01-24 06:17:00,41.8,29.7,30.14,ENE,63,2.0,4.0,62,0.00,,,0.00,Wunderground v.1.15,2013-01-24 11:17:00,
2013-01-24 06:23:00,41.6,29.1,30.15,NW,319,3.0,7.0,61,0.00,,,0.00,Wunderground v.1.15,2013-01-24 11:23:00,
2013-01-24 06:28:00,41.8,29.3,30.15,South,186,3.0,7.0,61,0.00,,,0.00,Wunderground v.1.15,2013-01-24 11:28:00,
2013-01-24 06:33:00,41.8,29.3,30.15,ESE,122,2.0,3.0,61,0.00,,,0.00,Wunderground v.1.15,2013-01-24 11:33:00,
2013-01-24 06:39:00,41.6,29.1,30.14,NW,311,2.0,4.0,61,0.00,,,0.00,Wunderground v.1.15,2013-01-24 11:39:00,
2013-01-24 06:45:00,41.6,28.7,30.15,East,93,1.0,3.0,60,0.00,,,0.00,Wunderground v.1.15,2013-01-24 11:45:00,
2013-01-24 06:51:00,41.5,29.0,30.15,East,84,1.0,1.0,61,0.00,,,0.00,Wunderground v.1.15,2013-01-24 11:51:00,
2013-01-24 06:56:00,41.5,28.6,30.14,WSW,252,1.0,5.0,60,0.00,,,0.00,Wunderground v.1.15,2013-01-24 11:56:00,
2013-01-24 07:01:00,41.5,28.6,30.15,South,171,2.0,5.0,60,0.00,,,0.00,Wunderground v.1.15,2013-01-24 12:01:00,
2013-01-24 07:06:00,41.3,28.9,30.15,WSW,241,1.0,5.0,61,0.00,,,0.00,Wunderground v.1.15,2013-01-24 12:06:00,
2013-01-24 07:12:00,40.9,28.5,30.15,NE,46,1.0,1.0,61,0.00,,,0.00,Wunderground v.1.15,2013-01-24 12:12:00,
2013-01-24 07:17:00,40.7,28.7,30.15,NNE,21,1.0,1.0,62,0.00,,,0.00,Wunderground v.1.15,2013-01-24 12:17:00,
2013-01-24 07:23:00,40.5,28.5,30.15,NNW,345,2.0,5.0,62,0.00,,,0.00,Wunderground v.1.15,2013-01-24 12:23:00,
2013-01-24 07:29:00,40.5,28.5,30.14,NNW,333,2.0,5.0,62,0.00,,,0.00,Wunderground v.1.15,2013-01-24 12:29:00,
2013-01-24 07:34:00,40.4,28.4,30.14,NNW,348,1.0,2.0,62,0.00,,,0.00,Wunderground v.1.15,2013-01-24 12:34:00,
2013-01-24 07:39:00,40.3,27.9,30.14,WNW,296,1.0,7.0,61,0.00,,,0.00,Wunderground v.1.15,2013-01-24 12:39:00,
2013-01-24 07:44:00,40.1,27.7,30.14,West,263,1.0,1.0,61,0.00,,,0.00,Wunderground v.1.15,2013-01-24 12:44:00,
2013-01-24 07:51:00,39.8,27.8,30.14,ESE,102,1.0,1.0,62,0.00,,,0.00,Wunderground v.1.15,2013-01-24 12:51:00,
2013-01-24 07:56:00,39.7,27.3,30.15,NW,320,1.0,7.0,61,0.00,,,0.00,Wunderground v.1.15,2013-01-24 12:56:00,
2013-01-24 08:01:00,39.7,27.7,30.15,NNE,30,1.0,3.0,62,0.00,,,0.00,Wunderground v.1.15,2013-01-24 13:01:00,
2013-01-24 08:06:00,40.0,27.2,30.15,SSW,196,2.0,5.0,60,0.00,,,0.00,Wunderground v.1.15,2013-01-24 13:06:00,
2013-01-24 08:11:00,40.6,27.0,30.15,South,173,3.0,3.0,58,0.00,,,0.00,Wunderground v.1.15,2013-01-24 13:11:00,
2013-01-24 08:17:00,40.9,26.8,30.15,South,171,2.0,3.0,57,0.00,,,0.00,Wunderground v.1.15,2013-01-24 13:17:00,
2013-01-24 08:23:00,40.8,26.3,30.16,South,173,1.0,2.0,56,0.00,,,0.00,Wunderground v.1.15,2013-01-24 13:23:00,
2013-01-24 08:29:00,41.0,26.5,30.16,WNW,293,2.0,8.0,56,0.00,,,0.00,Wunderground v.1.15,2013-01-24 13:29:00,
2013-01-24 08:35:00,41.4,26.0,30.16,West,266,2.0,4.0,54,0.00,,,0.00,Wunderground v.1.15,2013-01-24 13:35:00,
2013-01-24 08:41:00,41.8,25.9,30.16,South,170,2.0,2.0,53,0.00,,,0.00,Wunderground v.1.15,2013-01-24 13:41:00,
2013-01-24 08:51:00,42.4,26.5,30.17,NNW,337,2.0,7.0,53,0.00,,,0.00,Wunderground v.1.15,2013-01-24 13:51:00,
2013-01-24 08:56:00,42.5,25.6,30.17,NNW,345,2.0,7.0,51,0.00,,,0.00,Wunderground v.1.15,2013-01-24 13:56:00,
2013-01-24 09:02:00,43.0,26.1,30.18,ESE,111,3.0,3.0,51,0.00,,,0.00,Wunderground v.1.15,2013-01-24 14:02:00,
2013-01-24 09:08:00,43.4,24.5,30.18,North,360,3.0,3.0,47,0.00,,,0.00,Wunderground v.1.15,2013-01-24 14:08:00,
2013-01-24 09:13:00,44.0,25.0,30.19,NNW,335,2.0,7.0,47,0.00,,,0.00,Wunderground v.1.15,2013-01-24 14:13:00,
2013-01-24 09:19:00,44.2,24.7,30.19,NW,321,1.0,7.0,46,0.00,,,0.00,Wunderground v.1.15,2013-01-24 14:19:00,
2013-01-24 09:25:00,44.5,23.9,30.19,WSW,238,1.0,3.0,44,0.00,,,0.00,Wunderground v.1.15,2013-01-24 14:25:00,
2013-01-24 09:31:00,44.6,22.9,30.19,West,263,1.0,5.0,42,0.00,,,0.00,Wunderground v.1.15,2013-01-24 14:31:00,
2013-01-24 09:37:00,45.0,22.7,30.19,NNE,13,2.0,5.0,41,0.00,,,0.00,Wunderground v.1.15,2013-01-24 14:37:00,
2013-01-24 09:42:00,45.3,22.4,30.19,NW,309,2.0,2.0,40,0.00,,,0.00,Wunderground v.1.15,2013-01-24 14:42:00,
2013-01-24 09:51:00,45.9,19.8,30.19,WNW,303,2.0,3.0,35,0.00,,,0.00,Wunderground v.1.15,2013-01-24 14:51:00,
2013-01-24 09:56:00,46.2,20.7,30.20,NNW,339,2.0,7.0,36,0.00,,,0.00,Wunderground v.1.15,2013-01-24 14:56:00,
2013-01-24 10:01:00,46.4,19.5,30.20,NNW,333,2.0,4.0,34,0.00,,,0.00,Wunderground v.1.15,2013-01-24 15:01:00,
2013-01-24 10:07:00,46.8,18.5,30.22,NW,309,2.0,4.0,32,0.00,,,0.00,Wunderground v.1.15,2013-01-24 15:07:00,
2013-01-24 10:12:00,47.2,18.1,30.22,WSW,245,1.0,3.0,31,0.00,,,0.00,Wunderground v.1.15,2013-01-24 15:12:00,
2013-01-24 10:18:00,47.5,17.6,30.22,NW,311,1.0,4.0,30,0.00,,,0.00,Wunderground v.1.15,2013-01-24 15:18:00,
2013-01-24 10:24:00,47.6,14.3,30.23,NNW,344,2.0,5.0,26,0.00,,,0.00,Wunderground v.1.15,2013-01-24 15:24:00,
2013-01-24 10:30:00,47.6,16.1,30.21,NNE,30,3.0,6.0,28,0.00,,,0.00,Wunderground v.1.15,2013-01-24 15:30:00,
2013-01-24 10:35:00,47.3,13.2,30.21,ENE,74,3.0,7.0,25,0.00,,,0.00,Wunderground v.1.15,2013-01-24 15:35:00,
2013-01-24 10:40:00,47.5,12.4,30.22,NNE,32,3.0,3.0,24,0.00,,,0.00,Wunderground v.1.15,2013-01-24 15:40:00,
2013-01-24 10:45:00,47.5,11.5,30.23,SE,130,2.0,4.0,23,0.00,,,0.00,Wunderground v.1.15,2013-01-24 15:45:00,
2013-01-24 10:51:00,47.7,8.5,30.22,NW,321,2.0,2.0,20,0.00,,,0.00,Wunderground v.1.15,2013-01-24 15:51:00,
2013-01-24 10:56:00,47.8,7.5,30.24,West,271,2.0,5.0,19,0.00,,,0.00,Wunderground v.1.15,2013-01-24 15:56:00,
2013-01-24 11:02:00,47.7,7.4,30.24,NNW,338,2.0,4.0,19,0.00,,,0.00,Wunderground v.1.15,2013-01-24 16:02:00,
2013-01-24 11:08:00,47.9,7.5,30.25,WNW,291,2.0,7.0,19,0.00,,,0.00,Wunderground v.1.15,2013-01-24 16:08:00,
2013-01-24 11:14:00,47.6,8.4,30.25,SSW,209,3.0,5.0,20,0.00,,,0.00,Wunderground v.1.15,2013-01-24 16:14:00,
2013-01-24 11:19:00,47.3,7.0,30.26,SSE,147,3.0,7.0,19,0.00,,,0.00,Wunderground v.1.15,2013-01-24 16:19:00,
2013-01-24 11:24:00,46.7,6.5,30.25,NW,309,3.0,9.0,19,0.00,,,0.00,Wunderground v.1.15,2013-01-24 16:24:00,
2013-01-24 11:30:00,46.4,7.4,30.26,NW,304,3.0,5.0,20,0.00,,,0.00,Wunderground v.1.15,2013-01-24 16:30:00,
2013-01-24 11:36:00,46.7,8.8,30.26,SSW,198,3.0,5.0,21,0.00,,,0.00,Wunderground v.1.15,2013-01-24 16:36:00,
2013-01-24 11:42:00,46.5,6.4,30.26,North,5,3.0,8.0,19,0.00,,,0.00,Wunderground v.1.15,2013-01-24 16:42:00,
2013-01-24 11:51:00,46.3,7.3,30.27,SW,225,4.0,4.0,20,0.00,,,0.00,Wunderground v.1.15,2013-01-24 16:51:00,
2013-01-24 11:56:00,46.5,6.4,30.27,WSW,246,3.0,7.0,19,0.00,,,0.00,Wunderground v.1.15,2013-01-24 16:56:00,
2013-01-24 12:02:00,46.7,6.5,30.27,North,5,2.0,11.0,19,0.00,,,0.00,Wunderground v.1.15,2013-01-24 17:02:00,
2013-01-24 12:08:00,46.7,5.4,30.27,WSW,252,3.0,11.0,18,0.00,,,0.00,Wunderground v.1.15,2013-01-24 17:08:00,
2013-01-24 12:14:00,46.7,5.4,30.26,ESE,115,3.0,4.0,18,0.00,,,0.00,Wunderground v.1.15,2013-01-24 17:14:00,
2013-01-24 12:19:00,47.1,6.9,30.26,WSW,238,2.0,4.0,19,0.00,,,0.00,Wunderground v.1.15,2013-01-24 17:19:00,
2013-01-24 12:25:00,47.2,10.2,30.26,SE,138,2.0,3.0,22,0.00,,,0.00,Wunderground v.1.15,2013-01-24 17:25:00,
2013-01-24 12:31:00,47.3,5.9,30.26,NW,322,2.0,3.0,18,0.00,,,0.00,Wunderground v.1.15,2013-01-24 17:31:00,
2013-01-24 12:36:00,47.5,8.3,30.26,WNW,302,2.0,3.0,20,0.00,,,0.00,Wunderground v.1.15,2013-01-24 17:36:00,
2013-01-24 12:41:00,47.4,4.7,30.26,WSW,238,3.0,3.0,17,0.00,,,0.00,Wunderground v.1.15,2013-01-24 17:41:00,
2013-01-24 12:51:00,47.6,3.5,30.26,WSW,237,3.0,3.0,16,0.00,,,0.00,Wunderground v.1.15,2013-01-24 17:51:00,
2013-01-24 12:56:00,47.8,2.3,30.26,NNW,343,2.0,5.0,15,0.00,,,0.00,Wunderground v.1.15,2013-01-24 17:56:00,
2013-01-24 13:01:00,47.7,2.2,30.26,WNW,290,2.0,3.0,15,0.00,,,0.00,Wunderground v.1.15,2013-01-24 18:01:00,
2013-01-24 13:07:00,47.8,2.3,30.26,NNE,20,3.0,6.0,15,0.00,,,0.00,Wunderground v.1.15,2013-01-24 18:07:00,
2013-01-24 13:12:00,48.1,1.1,30.26,West,273,2.0,3.0,14,0.00,,,0.00,Wunderground v.1.15,2013-01-24 18:12:00,
2013-01-24 13:18:00,48.3,2.7,30.26,SW,232,2.0,7.0,15,0.00,,,0.00,Wunderground v.1.15,2013-01-24 18:18:00,
2013-01-24 13:24:00,48.2,-0.5,30.26,SSW,192,3.0,4.0,13,0.00,,,0.00,Wunderground v.1.15,2013-01-24 18:24:00,
2013-01-24 13:29:00,47.9,-0.7,30.28,NE,37,3.0,4.0,13,0.00,,,0.00,Wunderground v.1.15,2013-01-24 18:29:00,
2013-01-24 13:35:00,47.8,0.8,30.27,ENE,64,3.0,6.0,14,0.00,,,0.00,Wunderground v.1.15,2013-01-24 18:35:00,
2013-01-24 13:41:00,47.9,-0.7,30.26,SW,236,3.0,12.0,13,0.00,,,0.00,Wunderground v.1.15,2013-01-24 18:41:00,
2013-01-24 13:51:00,47.9,0.9,30.27,NNW,346,3.0,3.0,14,0.00,,,0.00,Wunderground v.1.15,2013-01-24 18:51:00,
2013-01-24 13:56:00,47.7,-0.8,30.27,West,267,2.0,6.0,13,0.00,,,0.00,Wunderground v.1.15,2013-01-24 18:56:00,
2013-01-24 14:02:00,47.7,0.7,30.27,NNW,347,2.0,2.0,14,0.00,,,0.00,Wunderground v.1.15,2013-01-24 19:02:00,
2013-01-24 14:08:00,48.1,1.1,30.27,NE,52,2.0,3.0,14,0.00,,,0.00,Wunderground v.1.15,2013-01-24 19:08:00,
2013-01-24 14:14:00,48.1,1.1,30.26,SSW,213,2.0,3.0,14,0.00,,,0.00,Wunderground v.1.15,2013-01-24 19:14:00,
2013-01-24 14:19:00,47.7,-0.8,30.27,WSW,242,3.0,5.0,13,0.00,,,0.00,Wunderground v.1.15,2013-01-24 19:19:00,
2013-01-24 14:25:00,47.7,3.6,30.27,WNW,301,3.0,5.0,16,0.00,,,0.00,Wunderground v.1.15,2013-01-24 19:25:00,
2013-01-24 14:31:00,48.0,1.0,30.27,WNW,296,2.0,2.0,14,0.00,,,0.00,Wunderground v.1.15,2013-01-24 19:31:00,
2013-01-24 14:37:00,48.4,-2.0,30.28,NNW,341,2.0,3.0,12,0.00,,,0.00,Wunderground v.1.15,2013-01-24 19:37:00,
2013-01-24 14:43:00,48.4,1.3,30.27,WSW,246,2.0,6.0,14,0.00,,,0.00,Wunderground v.1.15,2013-01-24 19:43:00,
2013-01-24 14:51:00,48.3,2.7,30.27,North,355,2.0,2.0,15,0.00,,,0.00,Wunderground v.1.15,2013-01-24 19:51:00,
2013-01-24 14:56:00,48.4,2.8,30.28,West,266,1.0,7.0,15,0.00,,,0.00,Wunderground v.1.15,2013-01-24 19:56:00,
2013-01-24 15:02:00,48.5,2.9,30.28,NW,319,1.0,1.0,15,0.00,,,0.00,Wunderground v.1.15,2013-01-24 20:02:00,
2013-01-24 15:08:00,48.4,1.3,30.29,NW,319,2.0,7.0,14,0.00,,,0.00,Wunderground v.1.15,2013-01-24 20:08:00,
2013-01-24 15:13:00,48.1,1.1,30.28,West,272,2.0,4.0,14,0.00,,,0.00,Wunderground v.1.15,2013-01-24 20:13:00,
2013-01-24 15:19:00,47.7,2.2,30.29,NW,304,1.0,4.0,15,0.00,,,0.00,Wunderground v.1.15,2013-01-24 20:19:00,
2013-01-24 15:24:00,47.5,3.4,30.28,SW,219,2.0,4.0,16,0.00,,,0.00,Wunderground v.1.15,2013-01-24 20:24:00,
2013-01-24 15:29:00,47.4,-1.1,30.29,NE,53,1.0,4.0,13,0.00,,,0.00,Wunderground v.1.15,2013-01-24 20:29:00,
2013-01-24 15:35:00,47.6,2.1,30.28,West,273,1.0,1.0,15,0.00,,,0.00,Wunderground v.1.15,2013-01-24 20:35:00,
2013-01-24 15:41:00,47.6,-0.9,30.29,WNW,296,1.0,3.0,13,0.00,,,0.00,Wunderground v.1.15,2013-01-24 20:41:00,
2013-01-24 15:51:00,47.2,0.3,30.30,NW,319,1.0,1.0,14,0.00,,,0.00,Wunderground v.1.15,2013-01-24 20:51:00,
2013-01-24 15:56:00,46.8,0.0,30.30,NW,314,1.0,8.0,14,0.00,,,0.00,Wunderground v.1.15,2013-01-24 20:56:00,
2013-01-24 16:02:00,46.3,-2.0,30.30,NNW,337,2.0,2.0,13,0.00,,,0.00,Wunderground v.1.15,2013-01-24 21:02:00,
2013-01-24 16:08:00,46.1,-2.1,30.31,West,267,2.0,4.0,13,0.00,,,0.00,Wunderground v.1.15,2013-01-24 21:08:00,
2013-01-24 16:14:00,46.0,-0.6,30.31,NNW,327,1.0,3.0,14,0.00,,,0.00,Wunderground v.1.15,2013-01-24 21:14:00,
2013-01-24 16:19:00,45.9,-2.3,30.31,WNW,299,1.0,3.0,13,0.00,,,0.00,Wunderground v.1.15,2013-01-24 21:19:00,
2013-01-24 16:24:00,45.6,-2.5,30.31,West,265,1.0,3.0,13,0.00,,,0.00,Wunderground v.1.15,2013-01-24 21:24:00,
2013-01-24 16:30:00,45.4,-2.7,30.31,WSW,240,2.0,2.0,13,0.00,,,0.00,Wunderground v.1.15,2013-01-24 21:30:00,
2013-01-24 16:36:00,45.3,-2.8,30.31,WSW,246,1.0,3.0,13,0.00,,,0.00,Wunderground v.1.15,2013-01-24 21:36:00,
2013-01-24 16:42:00,45.1,-1.4,30.32,West,272,1.0,1.0,14,0.00,,,0.00,Wunderground v.1.15,2013-01-24 21:42:00,
2013-01-24 16:51:00,44.6,2.4,30.32,NNW,328,1.0,2.0,17,0.00,,,0.00,Wunderground v.1.15,2013-01-24 21:51:00,
2013-01-24 16:56:00,44.3,5.7,30.32,NNW,327,0.0,6.0,20,0.00,,,0.00,Wunderground v.1.15,2013-01-24 21:56:00,
2013-01-24 17:01:00,44.0,0.6,30.32,NNW,339,1.0,1.0,16,0.00,,,0.00,Wunderground v.1.15,2013-01-24 22:01:00,
2013-01-24 17:06:00,43.9,0.5,30.32,NNW,329,1.0,3.0,16,0.00,,,0.00,Wunderground v.1.15,2013-01-24 22:06:00,
2013-01-24 17:11:00,43.9,1.8,30.32,NW,323,1.0,2.0,17,0.00,,,0.00,Wunderground v.1.15,2013-01-24 22:11:00,
2013-01-24 17:17:00,43.7,1.6,30.33,NNW,327,1.0,2.0,17,0.00,,,0.00,Wunderground v.1.15,2013-01-24 22:17:00,
2013-01-24 17:23:00,43.5,3.9,30.33,NNW,327,0.0,1.0,19,0.00,,,0.00,Wunderground v.1.15,2013-01-24 22:23:00,
2013-01-24 17:28:00,43.3,2.6,30.33,NNW,346,1.0,1.0,18,0.00,,,0.00,Wunderground v.1.15,2013-01-24 22:28:00,
2013-01-24 17:34:00,42.8,5.5,30.34,NNW,327,1.0,2.0,21,0.00,,,0.00,Wunderground v.1.15,2013-01-24 22:34:00,
2013-01-24 17:39:00,42.3,2.9,30.35,NW,317,1.0,2.0,19,0.00,,,0.00,Wunderground v.1.15,2013-01-24 22:39:00,
2013-01-24 17:45:00,41.7,5.6,30.35,NNW,333,1.0,2.0,22,0.00,,,0.00,Wunderground v.1.15,2013-01-24 22:45:00,
2013-01-24 17:51:00,41.3,4.2,30.35,NNW,329,1.0,2.0,21,0.00,,,0.00,Wunderground v.1.15,2013-01-24 22:51:00,
2013-01-24 17:56:00,40.8,3.8,30.35,NW,318,1.0,3.0,21,0.00,,,0.00,Wunderground v.1.15,2013-01-24 22:56:00,
2013-01-24 18:02:00,40.5,3.6,30.35,NNW,331,1.0,2.0,21,0.00,,,0.00,Wunderground v.1.15,2013-01-24 23:02:00,
2013-01-24 18:07:00,40.2,3.3,30.35,NNW,328,1.0,2.0,21,0.00,,,0.00,Wunderground v.1.15,2013-01-24 23:07:00,
2013-01-24 18:13:00,39.9,5.0,30.35,NW,315,1.0,1.0,23,0.00,,,0.00,Wunderground v.1.15,2013-01-24 23:13:00,
2013-01-24 18:19:00,39.5,5.6,30.35,NW,317,0.0,1.0,24,0.00,,,0.00,Wunderground v.1.15,2013-01-24 23:19:00,
2013-01-24 18:25:00,39.0,6.1,30.36,NW,317,0.0,1.0,25,0.00,,,0.00,Wunderground v.1.15,2013-01-24 23:25:00,
2013-01-24 18:30:00,38.6,7.4,30.37,NW,317,0.0,0.0,27,0.00,,,0.00,Wunderground v.1.15,2013-01-24 23:30:00,
2013-01-24 18:35:00,38.3,2.7,30.38,WNW,290,0.0,2.0,22,0.00,,,0.00,Wunderground v.1.15,2013-01-24 23:35:00,
2013-01-24 18:41:00,38.3,8.0,30.38,NW,311,1.0,1.0,28,0.00,,,0.00,Wunderground v.1.15,2013-01-24 23:41:00,
2013-01-24 18:51:00,37.1,11.3,30.39,NW,311,0.0,0.0,34,0.00,,,0.00,Wunderground v.1.15,2013-01-24 23:51:00,
2013-01-24 18:56:00,36.7,12.8,30.40,NW,311,0.0,4.0,37,0.00,,,0.00,Wunderground v.1.15,2013-01-24 23:56:00,
2013-01-24 19:01:00,36.3,11.9,30.40,NW,311,0.0,1.0,36,0.00,,,0.00,Wunderground v.1.15,2013-01-25 00:01:00,
2013-01-24 19:07:00,35.9,13.3,30.41,NW,311,0.0,1.0,39,0.00,,,0.00,Wunderground v.1.15,2013-01-25 00:07:00,
2013-01-24 19:12:00,35.7,13.7,30.40,NW,311,0.0,0.0,40,0.00,,,0.00,Wunderground v.1.15,2013-01-25 00:12:00,
2013-01-24 19:17:00,35.5,13.0,30.40,NW,311,0.0,0.0,39,0.00,,,0.00,Wunderground v.1.15,2013-01-25 00:17:00,
2013-01-24 19:22:00,35.3,16.0,30.40,NW,311,0.0,1.0,45,0.00,,,0.00,Wunderground v.1.15,2013-01-25 00:22:00,
2013-01-24 19:28:00,35.1,15.9,30.41,NW,311,0.0,1.0,45,0.00,,,0.00,Wunderground v.1.15,2013-01-25 00:28:00,
2013-01-24 19:34:00,34.9,17.2,30.41,NW,311,0.0,0.0,48,0.00,,,0.00,Wunderground v.1.15,2013-01-25 00:34:00,
2013-01-24 19:39:00,34.7,17.0,30.41,NW,311,0.0,0.0,48,0.00,,,0.00,Wunderground v.1.15,2013-01-25 00:39:00,
2013-01-24 19:45:00,34.7,16.5,30.42,NW,311,0.0,1.0,47,0.00,,,0.00,Wunderground v.1.15,2013-01-25 00:45:00,
2013-01-24 19:51:00,34.6,16.4,30.42,NW,321,0.0,0.0,47,0.00,,,0.00,Wunderground v.1.15,2013-01-25 00:51:00,
2013-01-24 19:56:00,34.4,17.7,30.42,NW,321,0.0,2.0,50,0.00,,,0.00,Wunderground v.1.15,2013-01-25 00:56:00,
2013-01-24 20:02:00,34.3,16.6,30.43,NW,321,0.0,0.0,48,0.00,,,0.00,Wunderground v.1.15,2013-01-25 01:02:00,
2013-01-24 20:08:00,34.2,17.5,30.43,NW,321,0.0,2.0,50,0.00,,,0.00,Wunderground v.1.15,2013-01-25 01:08:00,
2013-01-24 20:13:00,33.9,18.1,30.42,NW,321,0.0,0.0,52,0.00,,,0.00,Wunderground v.1.15,2013-01-25 01:13:00,
2013-01-24 20:18:00,33.7,18.4,30.42,NW,321,0.0,0.0,53,0.00,,,0.00,Wunderground v.1.15,2013-01-25 01:18:00,
2013-01-24 20:24:00,33.5,18.2,30.43,NW,321,0.0,0.0,53,0.00,,,0.00,Wunderground v.1.15,2013-01-25 01:24:00,
2013-01-24 20:30:00,33.3,18.4,30.43,NW,321,0.0,0.0,54,0.00,,,0.00,Wunderground v.1.15,2013-01-25 01:30:00,
2013-01-24 20:35:00,33.1,17.4,30.43,NW,321,0.0,0.0,52,0.00,,,0.00,Wunderground v.1.15,2013-01-25 01:35:00,
2013-01-24 20:41:00,32.9,17.6,30.44,NW,321,0.0,0.0,53,0.00,,,0.00,Wunderground v.1.15,2013-01-25 01:41:00,
2013-01-24 20:50:00,32.5,17.7,30.44,NW,321,0.0,0.0,54,0.00,,,0.00,Wunderground v.1.15,2013-01-25 01:50:00,
2013-01-24 20:56:00,32.3,17.9,30.44,NW,321,0.0,2.0,55,0.00,,,0.00,Wunderground v.1.15,2013-01-25 01:56:00,
2013-01-24 21:02:00,32.1,17.7,30.44,NW,321,0.0,0.0,55,0.00,,,0.00,Wunderground v.1.15,2013-01-25 02:02:00,
2013-01-24 21:08:00,31.9,17.1,30.44,NW,321,0.0,0.0,54,0.00,,,0.00,Wunderground v.1.15,2013-01-25 02:08:00,
2013-01-24 21:13:00,31.7,17.8,30.45,NW,321,0.0,0.0,56,0.00,,,0.00,Wunderground v.1.15,2013-01-25 02:13:00,
2013-01-24 21:19:00,31.5,15.9,30.45,SSW,200,0.0,0.0,52,0.00,,,0.00,Wunderground v.1.15,2013-01-25 02:19:00,
2013-01-24 21:24:00,31.9,13.9,30.46,NE,36,0.0,1.0,47,0.00,,,0.00,Wunderground v.1.15,2013-01-25 02:24:00,
2013-01-24 21:29:00,32.6,14.1,30.46,SE,131,1.0,3.0,46,0.00,,,0.00,Wunderground v.1.15,2013-01-25 02:29:00,
2013-01-24 21:35:00,33.3,11.5,30.46,ESE,105,2.0,3.0,40,0.00,,,0.00,Wunderground v.1.15,2013-01-25 02:35:00,
2013-01-24 21:41:00,33.4,11.1,30.47,East,84,1.0,3.0,39,0.00,,,0.00,Wunderground v.1.15,2013-01-25 02:41:00,
2013-01-24 21:50:00,32.8,8.1,30.48,SE,140,2.0,2.0,35,0.00,,,0.00,Wunderground v.1.15,2013-01-25 02:50:00,
2013-01-24 21:56:00,32.5,7.8,30.48,ENE,68,1.0,2.0,35,0.00,,,0.00,Wunderground v.1.15,2013-01-25 02:56:00,
2013-01-24 22:01:00,32.3,7.0,30.48,NE,40,2.0,3.0,34,0.00,,,0.00,Wunderground v.1.15,2013-01-25 03:01:00,
2013-01-24 22:06:00,32.1,7.5,30.48,SSW,205,1.0,3.0,35,0.00,,,0.00,Wunderground v.1.15,2013-01-25 03:06:00,
2013-01-24 22:12:00,31.9,7.3,30.48,NE,49,1.0,1.0,35,0.00,,,0.00,Wunderground v.1.15,2013-01-25 03:12:00,
2013-01-24 22:17:00,31.6,7.7,30.48,ENE,59,1.0,2.0,36,0.00,,,0.00,Wunderground v.1.15,2013-01-25 03:17:00,
2013-01-24 22:23:00,31.2,7.9,30.48,SE,126,1.0,3.0,37,0.00,,,0.00,Wunderground v.1.15,2013-01-25 03:23:00,
2013-01-24 22:29:00,30.9,8.2,30.49,WSW,248,2.0,4.0,38,0.00,,,0.00,Wunderground v.1.15,2013-01-25 03:29:00,
2013-01-24 22:34:00,30.6,8.5,30.49,South,183,1.0,2.0,39,0.00,,,0.00,Wunderground v.1.15,2013-01-25 03:34:00,
2013-01-24 22:40:00,30.3,8.8,30.49,East,82,1.0,2.0,40,0.00,,,0.00,Wunderground v.1.15,2013-01-25 03:40:00,
2013-01-24 22:45:00,30.0,9.1,30.50,SSE,157,2.0,4.0,41,0.00,,,0.00,Wunderground v.1.15,2013-01-25 03:45:00,
2013-01-24 22:50:00,29.7,8.8,30.50,SSW,197,1.0,1.0,41,0.00,,,0.00,Wunderground v.1.15,2013-01-25 03:50:00,
2013-01-24 22:56:00,29.4,9.1,30.50,East,98,1.0,4.0,42,0.00,,,0.00,Wunderground v.1.15,2013-01-25 03:56:00,
2013-01-24 23:01:00,29.1,8.8,30.50,SSW,202,1.0,3.0,42,0.00,,,0.00,Wunderground v.1.15,2013-01-25 04:01:00,
2013-01-24 23:07:00,28.8,8.6,30.50,East,80,1.0,5.0,42,0.00,,,0.00,Wunderground v.1.15,2013-01-25 04:07:00,
2013-01-24 23:13:00,28.5,8.8,30.51,SSW,209,1.0,1.0,43,0.00,,,0.00,Wunderground v.1.15,2013-01-25 04:13:00,
2013-01-24 23:19:00,28.2,8.0,30.52,SE,127,1.0,3.0,42,0.00,,,0.00,Wunderground v.1.15,2013-01-25 04:19:00,
2013-01-24 23:25:00,28.0,8.4,30.51,SW,225,1.0,2.0,43,0.00,,,0.00,Wunderground v.1.15,2013-01-25 04:25:00,
2013-01-24 23:31:00,27.8,8.2,30.53,SSE,154,1.0,3.0,43,0.00,,,0.00,Wunderground v.1.15,2013-01-25 04:31:00,
2013-01-24 23:36:00,27.6,8.0,30.52,SW,227,1.0,4.0,43,0.00,,,0.00,Wunderground v.1.15,2013-01-25 04:36:00,
2013-01-24 23:41:00,27.5,8.4,30.54,SW,218,2.0,2.0,44,0.00,,,0.00,Wunderground v.1.15,2013-01-25 04:41:00,
2013-01-24 23:50:00,27.2,8.1,30.54,ESE,113,2.0,2.0,44,0.00,,,0.00,Wunderground v.1.15,2013-01-25 04:50:00,
2013-01-24 23:56:00,27.0,7.4,30.54,South,169,2.0,5.0,43,0.00,,,0.00,Wunderground v.1.15,2013-01-25 04:56:00,